Time;durP1;ratioP1;P1;durP2;ratioP2;P2;SDS_P1;SDS_P2;PMS_P1;PMS_P2;Temp;Humidity;BMP_temperature;BMP_pressure;BME280_temperature;BME280_humidity;BME280_pressure;Samples;Min_cycle;Max_cycle;Signal;HPM_P1;HPM_P2
2024/01/21 00:01:05;;;;;;;12.13;6.67;;;;;;;-6.05;100.00;102465.25;5040495;28;21049;-72
2024/01/21 00:03:31;;;;;;;11.00;6.50;;;;;;;-6.08;100.00;102466.41;5037738;28;20472;-72
2024/01/21 00:05:58;;;;;;;11.33;6.17;;;;;;;-6.10;100.00;102457.25;5041742;28;20494;-72
2024/01/21 00:08:24;;;;;;;11.23;6.27;;;;;;;-6.15;100.00;102450.06;5042131;28;20552;-72
2024/01/21 00:10:51;;;;;;;15.40;7.73;;;;;;;-6.16;100.00;102450.25;5041830;28;21048;-72
2024/01/21 00:13:17;;;;;;;9.00;6.30;;;;;;;-6.20;100.00;102446.41;5042922;28;21005;-73
2024/01/21 00:15:43;;;;;;;13.33;6.20;;;;;;;-6.23;100.00;102442.41;5038995;28;20812;-73
2024/01/21 00:18:11;;;;;;;12.90;6.83;;;;;;;-6.26;100.00;102439.38;5043273;28;20475;-72
2024/01/21 00:20:37;;;;;;;14.40;6.50;;;;;;;-6.29;100.00;102437.13;5045913;28;20488;-73
2024/01/21 00:23:04;;;;;;;10.13;6.17;;;;;;;-6.32;100.00;102434.91;5040967;28;20457;-72
2024/01/21 00:25:30;;;;;;;11.07;6.13;;;;;;;-6.36;100.00;102433.66;5041223;28;20469;-74
2024/01/21 00:27:57;;;;;;;12.80;6.63;;;;;;;-6.38;100.00;102428.69;5044886;28;20464;-73
2024/01/21 00:30:23;;;;;;;12.53;6.50;;;;;;;-6.39;100.00;102429.66;5040351;28;20563;-73
2024/01/21 00:32:49;;;;;;;13.30;6.20;;;;;;;-6.42;100.00;102434.34;5044962;28;21099;-72
2024/01/21 00:35:17;;;;;;;13.40;6.43;;;;;;;-6.45;100.00;102432.91;5043041;28;21588;-72
2024/01/21 00:37:43;;;;;;;14.87;8.20;;;;;;;-6.48;100.00;102433.22;5043250;28;20465;-73
2024/01/21 00:40:10;;;;;;;18.03;8.23;;;;;;;-6.48;100.00;102435.03;5048283;28;20568;-73
2024/01/21 00:42:37;;;;;;;13.13;6.93;;;;;;;-6.52;100.00;102431.97;5041676;28;20498;-73
2024/01/21 00:45:05;;;;;;;13.50;6.97;;;;;;;-6.54;100.00;102444.19;5044335;28;20466;-73
2024/01/21 00:47:31;;;;;;;12.57;7.07;;;;;;;-6.58;100.00;102434.44;5039775;28;20474;-73
2024/01/21 00:49:58;;;;;;;12.57;6.60;;;;;;;-6.60;100.00;102437.16;5048171;28;20479;-73
2024/01/21 00:52:25;;;;;;;11.00;5.97;;;;;;;-6.59;100.00;102450.78;5049429;28;20469;-73
2024/01/21 00:54:52;;;;;;;11.97;6.33;;;;;;;-6.63;100.00;102457.25;5044641;28;20480;-73
2024/01/21 00:57:19;;;;;;;13.60;6.27;;;;;;;-6.65;100.00;102446.31;5043761;28;20488;-74
2024/01/21 00:59:45;;;;;;;11.50;5.90;;;;;;;-6.65;100.00;102444.56;5044386;28;21146;-73
2024/01/21 01:02:12;;;;;;;9.40;5.63;;;;;;;-6.66;100.00;102440.41;5042784;28;20472;-73
2024/01/21 01:04:38;;;;;;;7.70;5.30;;;;;;;-6.71;100.00;102440.09;5040213;28;21009;-73
2024/01/21 01:07:04;;;;;;;11.80;5.43;;;;;;;-6.73;100.00;102436.88;5040253;28;20958;-72
2024/01/21 01:09:32;;;;;;;10.30;5.47;;;;;;;-6.76;100.00;102428.72;5043069;28;20934;-73
2024/01/21 01:11:58;;;;;;;11.83;6.83;;;;;;;-6.77;100.00;102422.78;5048331;28;20500;-73
2024/01/21 01:14:25;;;;;;;8.60;5.50;;;;;;;-6.79;100.00;102418.78;5045085;28;20610;-72
2024/01/21 01:16:51;;;;;;;9.27;5.63;;;;;;;-6.83;100.00;102438.84;5044385;28;20485;-73
2024/01/21 01:19:16;;;;;;;9.30;5.93;;;;;;;-6.85;100.00;102433.09;5044509;28;20464;-72
2024/01/21 01:21:43;;;;;;;11.87;5.33;;;;;;;-6.85;100.00;102432.28;5044914;28;20485;-72
2024/01/21 01:24:10;;;;;;;10.43;5.23;;;;;;;-6.81;100.00;102433.56;5042532;28;20204;-72
2024/01/21 01:26:37;;;;;;;9.37;5.40;;;;;;;-6.85;100.00;102419.44;5043435;28;20967;-72
2024/01/21 01:29:04;;;;;;;13.03;6.07;;;;;;;-6.86;100.00;102428.13;5043046;28;20831;-73
2024/01/21 01:31:30;;;;;;;12.60;5.37;;;;;;;-6.90;100.00;102429.41;5041357;28;20489;-73
2024/01/21 01:33:57;;;;;;;11.27;6.33;;;;;;;-6.94;100.00;102428.94;5041178;28;20549;-73
2024/01/21 01:36:23;;;;;;;11.10;6.63;;;;;;;-6.93;100.00;102427.19;5042860;28;20462;-73
2024/01/21 01:38:49;;;;;;;12.57;6.30;;;;;;;-6.94;100.00;102425.59;5043307;28;20469;-73
2024/01/21 01:41:16;;;;;;;11.23;6.53;;;;;;;-6.93;100.00;102435.72;5044064;28;20493;-73
2024/01/21 01:43:43;;;;;;;12.60;6.67;;;;;;;-6.97;100.00;102419.03;5043014;28;20544;-73
2024/01/21 01:46:10;;;;;;;10.63;5.17;;;;;;;-7.01;100.00;102417.75;5037197;28;20460;-72
2024/01/21 01:48:37;;;;;;;8.80;5.83;;;;;;;-7.02;100.00;102408.44;5040501;28;20756;-73
2024/01/21 01:51:04;;;;;;;9.83;4.93;;;;;;;-7.03;100.00;102406.88;5046665;28;20487;-73
2024/01/21 01:53:31;;;;;;;13.00;5.87;;;;;;;-7.02;100.00;102407.66;5040119;28;21077;-73
2024/01/21 01:55:59;;;;;;;9.23;5.47;;;;;;;-7.00;100.00;102395.47;5040217;28;20470;-73
2024/01/21 01:58:28;;;;;;;11.13;6.07;;;;;;;-7.07;100.00;102397.88;5040976;28;20627;-73
2024/01/21 02:00:56;;;;;;;12.87;5.93;;;;;;;-7.09;100.00;102393.88;5040631;28;20499;-73
2024/01/21 02:03:23;;;;;;;11.20;6.40;;;;;;;-7.14;100.00;102403.84;5043429;28;21147;-73
2024/01/21 02:05:50;;;;;;;10.43;5.50;;;;;;;-7.11;100.00;102401.75;5055735;28;20548;-72
2024/01/21 02:08:16;;;;;;;10.70;5.30;;;;;;;-7.13;100.00;102395.19;5042709;28;20921;-73
2024/01/21 02:10:42;;;;;;;10.03;5.50;;;;;;;-7.11;100.00;102401.75;5039936;28;20481;-73
2024/01/21 02:13:09;;;;;;;7.03;5.17;;;;;;;-7.09;100.00;102394.66;5042819;28;20463;-73
2024/01/21 02:15:35;;;;;;;12.40;6.27;;;;;;;-7.10;100.00;102405.13;5044142;28;20469;-73
2024/01/21 02:18:03;;;;;;;10.20;5.13;;;;;;;-7.10;100.00;102408.47;5042857;28;20473;-73
2024/01/21 02:20:30;;;;;;;10.37;5.13;;;;;;;-7.13;100.00;102406.25;5043114;28;20852;-73
2024/01/21 02:22:58;;;;;;;8.67;4.80;;;;;;;-7.21;100.00;102413.97;5036480;28;20479;-71
2024/01/21 02:25:25;;;;;;;10.23;5.90;;;;;;;-7.21;100.00;102416.53;5043967;28;20807;-73
2024/01/21 02:27:51;;;;;;;8.47;4.90;;;;;;;-7.21;100.00;102411.41;5043204;28;20469;-72
2024/01/21 02:30:18;;;;;;;7.13;4.30;;;;;;;-7.23;100.00;102408.22;5038758;28;20485;-72
2024/01/21 02:32:44;;;;;;;9.67;4.73;;;;;;;-7.27;100.00;102400.97;5045600;28;20475;-73
2024/01/21 02:35:10;;;;;;;8.27;4.83;;;;;;;-7.27;100.00;102401.78;5039939;28;20484;-73
2024/01/21 02:37:37;;;;;;;8.53;4.30;;;;;;;-7.29;100.00;102397.78;5042139;28;20451;-73
2024/01/21 02:40:06;;;;;;;9.80;4.47;;;;;;;-7.28;100.00;102392.50;5042597;28;20491;-74
2024/01/21 02:42:32;;;;;;;7.83;4.50;;;;;;;-7.29;100.00;102400.34;5043200;28;20842;-73
2024/01/21 02:44:58;;;;;;;10.80;4.97;;;;;;;-7.27;100.00;102399.22;5055559;28;20526;-74
2024/01/21 02:47:25;;;;;;;10.93;4.60;;;;;;;-7.28;100.00;102397.63;5044159;28;20453;-73
2024/01/21 02:49:51;;;;;;;10.20;4.97;;;;;;;-7.33;100.00;102396.50;5042785;28;20489;-73
2024/01/21 02:52:18;;;;;;;9.50;4.30;;;;;;;-7.37;100.00;102396.06;5042505;28;20461;-74
2024/01/21 02:54:44;;;;;;;13.43;5.10;;;;;;;-7.37;100.00;102388.34;5038097;28;20479;-74
2024/01/21 02:57:12;;;;;;;9.93;4.77;;;;;;;-7.35;100.00;102385.63;5047822;28;20462;-73
2024/01/21 02:59:39;;;;;;;6.20;4.27;;;;;;;-7.33;100.00;102370.84;5046205;28;20484;-74
2024/01/21 03:02:05;;;;;;;8.50;4.43;;;;;;;-7.32;100.00;102375.00;5044414;28;20462;-73
2024/01/21 03:04:31;;;;;;;7.90;4.63;;;;;;;-7.32;100.00;102368.13;5043085;28;21478;-73
2024/01/21 03:06:58;;;;;;;8.73;5.20;;;;;;;-7.34;100.00;102375.22;5045846;28;20506;-73
2024/01/21 03:09:24;;;;;;;6.53;3.90;;;;;;;-7.33;100.00;102376.81;5045703;28;20487;-73
2024/01/21 03:11:50;;;;;;;9.77;4.43;;;;;;;-7.32;100.00;102378.41;5046305;28;20456;-73
2024/01/21 03:14:18;;;;;;;7.83;3.93;;;;;;;-7.28;100.00;102376.28;5041465;28;20469;-74
2024/01/21 03:16:44;;;;;;;5.60;4.23;;;;;;;-7.24;100.00;102372.44;5042568;28;20467;-73
2024/01/21 03:19:11;;;;;;;5.93;3.53;;;;;;;-7.17;100.00;102375.94;5041648;28;20470;-74
2024/01/21 03:21:37;;;;;;;7.03;3.80;;;;;;;-7.12;100.00;102366.78;5044270;28;20492;-73
2024/01/21 03:24:04;;;;;;;8.57;4.90;;;;;;;-7.13;100.00;102356.69;5043298;28;20457;-74
2024/01/21 03:26:30;;;;;;;7.13;4.07;;;;;;;-7.08;100.00;102351.84;5043624;28;20478;-73
2024/01/21 03:28:57;;;;;;;5.77;3.67;;;;;;;-7.02;100.00;102357.13;5042541;28;20489;-73
2024/01/21 03:31:25;;;;;;;7.30;4.23;;;;;;;-6.99;100.00;102353.41;5042176;28;20477;-74
2024/01/21 03:33:51;;;;;;;7.77;4.03;;;;;;;-6.95;100.00;102357.25;5041670;28;20536;-73
2024/01/21 03:36:18;;;;;;;9.90;3.70;;;;;;;-6.90;100.00;102372.91;5044263;28;20528;-73
2024/01/21 03:38:45;;;;;;;7.07;4.07;;;;;;;-6.84;100.00;102357.66;5039765;28;20472;-73
2024/01/21 03:41:12;;;;;;;6.47;3.63;;;;;;;-6.76;100.00;102349.09;5040662;28;21050;-73
2024/01/21 03:43:38;;;;;;;7.07;3.53;;;;;;;-6.71;100.00;102354.53;5040540;28;20464;-70
2024/01/21 03:46:04;;;;;;;7.30;3.77;;;;;;;-6.63;100.00;102349.38;5042190;28;20466;-71
2024/01/21 03:48:32;;;;;;;6.40;3.90;;;;;;;-6.58;100.00;102342.72;5048076;28;20453;-71
2024/01/21 03:50:58;;;;;;;6.07;3.43;;;;;;;-6.50;100.00;102347.81;5043845;28;20472;-71
2024/01/21 03:53:25;;;;;;;8.10;4.17;;;;;;;-6.43;100.00;102351.31;5039059;28;20477;-72
2024/01/21 03:55:51;;;;;;;5.07;3.33;;;;;;;-6.36;100.00;102357.38;5041231;28;20473;-71
2024/01/21 03:58:17;;;;;;;6.70;4.03;;;;;;;-6.31;100.00;102355.06;5038565;28;20457;-71
2024/01/21 04:00:44;;;;;;;6.13;3.50;;;;;;;-6.27;100.00;102358.09;5048248;28;20488;-72
2024/01/21 04:03:10;;;;;;;7.00;3.97;;;;;;;-6.22;100.00;102363.53;5039678;28;20460;-71
2024/01/21 04:05:38;;;;;;;7.87;4.73;;;;;;;-6.20;100.00;102362.38;5043534;28;20468;-72
2024/01/21 04:08:06;;;;;;;6.63;3.80;;;;;;;-6.15;100.00;102359.28;5042182;28;20469;-74
2024/01/21 04:10:32;;;;;;;6.83;4.03;;;;;;;-6.15;100.00;102349.00;5049809;28;20888;-72
2024/01/21 04:12:59;;;;;;;4.90;3.57;;;;;;;-6.13;100.00;102349.63;5046636;28;21008;-72
2024/01/21 04:15:25;;;;;;;5.33;2.87;;;;;;;-6.14;100.00;102337.75;5047531;28;20472;-73
2024/01/21 04:17:51;;;;;;;4.73;3.70;;;;;;;-6.15;100.00;102336.97;5042722;28;20461;-73
2024/01/21 04:20:18;;;;;;;4.57;3.10;;;;;;;-6.14;100.00;102337.75;5047645;28;20479;-73
2024/01/21 04:22:45;;;;;;;4.57;2.90;;;;;;;-6.13;100.00;102336.75;5041487;28;20906;-73
2024/01/21 04:25:12;;;;;;;4.97;2.90;;;;;;;-6.16;100.00;102343.06;5041347;28;20469;-73
2024/01/21 04:27:38;;;;;;;5.67;3.10;;;;;;;-6.18;100.00;102337.28;5046806;28;20549;-73
2024/01/21 04:30:06;;;;;;;5.57;3.40;;;;;;;-6.20;100.00;102331.53;5043685;28;20870;-73
2024/01/21 04:32:32;;;;;;;5.17;3.00;;;;;;;-6.23;100.00;102331.88;5044728;28;20460;-72
2024/01/21 04:34:59;;;;;;;5.13;3.03;;;;;;;-6.23;100.00;102333.63;5039536;28;20472;-73
2024/01/21 04:37:25;;;;;;;3.87;2.80;;;;;;;-6.24;100.00;102332.84;5044682;28;21033;-73
2024/01/21 04:39:53;;;;;;;4.80;3.20;;;;;;;-6.26;100.00;102334.00;5045563;28;20825;-73
2024/01/21 04:42:19;;;;;;;5.53;3.40;;;;;;;-6.27;100.00;102327.25;5045641;28;20576;-72
2024/01/21 04:44:45;;;;;;;4.07;2.70;;;;;;;-6.31;100.00;102326.00;5041777;28;20465;-72
2024/01/21 04:47:12;;;;;;;7.33;3.03;;;;;;;-6.27;100.00;102322.91;5043000;28;20834;-72
2024/01/21 04:49:38;;;;;;;4.13;2.50;;;;;;;-6.24;100.00;102321.75;5043848;28;20759;-72
2024/01/21 04:52:05;;;;;;;4.27;2.80;;;;;;;-6.24;100.00;102324.31;5042675;28;20470;-72
2024/01/21 04:54:31;;;;;;;5.90;2.87;;;;;;;-6.26;100.00;102323.72;5043103;28;20483;-72
2024/01/21 04:56:59;;;;;;;5.80;2.60;;;;;;;-6.22;100.00;102332.69;5043813;28;20552;-72
2024/01/21 04:59:25;;;;;;;3.30;2.40;;;;;;;-6.24;100.00;102330.28;5040893;28;20460;-73
2024/01/21 05:01:52;;;;;;;4.40;2.80;;;;;;;-6.23;100.00;102334.44;5043172;28;20477;-73
2024/01/21 05:04:18;;;;;;;4.73;3.17;;;;;;;-6.25;100.00;102330.44;5052409;28;20472;-73
2024/01/21 05:06:45;;;;;;;6.30;3.23;;;;;;;-6.27;100.00;102327.25;5042337;28;20465;-72
2024/01/21 05:09:11;;;;;;;4.47;2.97;;;;;;;-6.31;100.00;102331.16;5037149;28;20469;-73
2024/01/21 05:11:38;;;;;;;2.87;2.30;;;;;;;-6.29;100.00;102331.75;5038981;28;20489;-73
2024/01/21 05:14:05;;;;;;;4.23;2.50;;;;;;;-6.31;100.00;102333.72;5035946;28;20453;-73
2024/01/21 05:16:32;;;;;;;5.40;3.03;;;;;;;-6.27;100.00;102334.97;5042407;28;20468;-72
2024/01/21 05:18:58;;;;;;;5.40;3.10;;;;;;;-6.28;100.00;102333.34;5042191;28;20469;-73
2024/01/21 05:21:24;;;;;;;5.37;3.10;;;;;;;-6.30;100.00;102333.56;5035873;28;20481;-72
2024/01/21 05:23:52;;;;;;;4.67;3.00;;;;;;;-6.30;100.00;102330.97;5040654;28;20454;-73
2024/01/21 05:26:19;;;;;;;4.30;3.00;;;;;;;-6.30;100.00;102320.69;5040068;28;20471;-73
2024/01/21 05:28:46;;;;;;;4.50;2.87;;;;;;;-6.30;100.00;102315.56;5038717;28;20449;-72
2024/01/21 05:31:14;;;;;;;5.53;3.07;;;;;;;-6.28;100.00;102305.91;5040207;28;20461;-74
2024/01/21 05:33:40;;;;;;;4.20;2.90;;;;;;;-6.26;100.00;102303.16;5042259;28;20465;-74
2024/01/21 05:36:09;;;;;;;7.83;3.63;;;;;;;-6.27;100.00;102294.63;5038590;28;20500;-73
2024/01/21 05:38:35;;;;;;;5.50;3.03;;;;;;;-6.26;100.00;102292.88;5043203;28;20990;-73
2024/01/21 05:41:02;;;;;;;8.13;3.57;;;;;;;-6.23;100.00;102297.66;5061932;22;20541;-69
2024/01/21 05:43:28;;;;;;;6.83;3.13;;;;;;;-6.22;100.00;102286.41;4998631;28;20468;-71
2024/01/21 05:45:55;;;;;;;4.77;2.97;;;;;;;-6.20;100.00;102289.59;5001860;28;20825;-70
2024/01/21 05:48:23;;;;;;;3.47;2.67;;;;;;;-6.19;100.00;102297.16;5016109;28;21090;-71
2024/01/21 05:50:49;;;;;;;7.20;3.00;;;;;;;-6.19;100.00;102298.91;5002489;28;20493;-71
2024/01/21 05:53:15;;;;;;;3.80;2.57;;;;;;;-6.17;100.00;102295.19;4998219;28;20482;-71
2024/01/21 05:55:42;;;;;;;3.50;2.37;;;;;;;-6.18;100.00;102296.16;4998673;28;20834;-71
2024/01/21 05:58:08;;;;;;;4.10;2.60;;;;;;;-6.19;100.00;102299.72;4994868;28;20463;-70
2024/01/21 06:00:34;;;;;;;3.03;2.53;;;;;;;-6.20;100.00;102297.31;4998116;28;21606;-70
2024/01/21 06:03:00;;;;;;;4.57;2.43;;;;;;;-6.24;100.00;102299.44;4997885;28;20500;-71
2024/01/21 06:05:28;;;;;;;5.63;2.40;;;;;;;-6.26;100.00;102293.66;4996881;28;20471;-70
2024/01/21 06:07:54;;;;;;;4.63;2.67;;;;;;;-6.28;100.00;102307.66;4998251;28;20468;-70
2024/01/21 06:10:21;;;;;;;3.53;2.23;;;;;;;-6.30;100.00;102301.91;4998126;28;20483;-70
2024/01/21 06:12:47;;;;;;;6.03;2.53;;;;;;;-6.31;100.00;102295.94;5000973;28;20668;-71
2024/01/21 06:15:13;;;;;;;5.13;2.93;;;;;;;-6.35;100.00;102305.00;4995519;28;20459;-71
2024/01/21 06:17:40;;;;;;;6.03;2.90;;;;;;;-6.36;100.00;102300.84;5000034;28;20470;-70
2024/01/21 06:20:08;;;;;;;6.23;3.10;;;;;;;-6.40;100.00;102294.44;5000666;28;20478;-70
2024/01/21 06:22:36;;;;;;;4.03;2.57;;;;;;;-6.42;100.00;102295.59;4998125;28;21923;-71
2024/01/21 06:25:03;;;;;;;5.40;3.37;;;;;;;-6.41;100.00;102295.41;4998145;28;20463;-70
2024/01/21 06:27:30;;;;;;;3.33;2.47;;;;;;;-6.42;100.00;102293.78;4995713;28;20475;-70
2024/01/21 06:29:56;;;;;;;3.90;2.70;;;;;;;-6.46;100.00;102294.31;4999468;28;20470;-71
2024/01/21 06:32:22;;;;;;;6.50;3.10;;;;;;;-6.46;100.00;102294.31;4999039;28;20459;-71
2024/01/21 06:34:49;;;;;;;4.53;2.50;;;;;;;-6.46;100.00;102291.75;4997198;28;20467;-69
2024/01/21 06:37:15;;;;;;;3.83;2.40;;;;;;;-6.52;100.00;102290.66;4996613;28;20974;-69
2024/01/21 06:39:43;;;;;;;5.30;2.53;;;;;;;-6.55;100.00;102285.06;5000932;28;20474;-70
2024/01/21 06:42:09;;;;;;;4.87;2.57;;;;;;;-6.59;100.00;102287.19;4999491;28;20500;-71
2024/01/21 06:44:35;;;;;;;4.23;2.63;;;;;;;-6.66;100.00;102278.59;4998585;28;20466;-69
2024/01/21 06:47:02;;;;;;;5.30;3.10;;;;;;;-6.69;100.00;102281.47;4998343;28;20467;-69
2024/01/21 06:49:28;;;;;;;4.90;2.63;;;;;;;-6.71;100.00;102280.06;4998009;28;20463;-71
2024/01/21 06:51:55;;;;;;;7.47;3.37;;;;;;;-6.75;100.00;102282.16;4998408;28;20479;-71
2024/01/21 06:54:21;;;;;;;7.30;4.00;;;;;;;-6.77;100.00;102283.31;4992646;28;20475;-71
2024/01/21 06:56:49;;;;;;;7.00;2.97;;;;;;;-6.78;100.00;102279.16;4997897;28;20475;-70
2024/01/21 06:59:15;;;;;;;6.47;3.00;;;;;;;-6.78;100.00;102277.38;4998345;28;20471;-71
2024/01/21 07:01:41;;;;;;;4.63;2.87;;;;;;;-6.77;100.00;102281.56;4997040;28;21207;-69
2024/01/21 07:04:08;;;;;;;4.50;2.60;;;;;;;-6.74;100.00;102267.56;4995083;28;20467;-71
2024/01/21 07:06:34;;;;;;;4.93;2.80;;;;;;;-6.71;100.00;102264.66;4998935;28;20467;-71
2024/01/21 07:09:00;;;;;;;7.63;4.53;;;;;;;-6.67;100.00;102259.00;4999643;28;20467;-71
2024/01/21 07:11:27;;;;;;;6.40;3.40;;;;;;;-6.63;100.00;102252.53;4994003;28;20503;-70
2024/01/21 07:13:55;;;;;;;6.57;3.40;;;;;;;-6.59;100.00;102243.53;4996442;28;20838;-70
2024/01/21 07:16:21;;;;;;;6.67;3.20;;;;;;;-6.53;100.00;102253.09;4997809;28;20485;-71
2024/01/21 07:18:47;;;;;;;6.00;3.30;;;;;;;-6.45;100.00;102252.22;4998252;28;20475;-70
2024/01/21 07:21:14;;;;;;;5.20;3.17;;;;;;;-6.38;100.00;102253.16;4995063;28;20486;-70
2024/01/21 07:23:40;;;;;;;8.00;4.03;;;;;;;-6.31;100.00;102254.81;4996897;28;20869;-70
2024/01/21 07:26:07;;;;;;;7.63;4.37;;;;;;;-6.23;100.00;102249.63;4994614;28;20464;-71
2024/01/21 07:28:34;;;;;;;8.17;4.20;;;;;;;-6.14;100.00;102256.28;4994468;28;20582;-71
2024/01/21 07:31:01;;;;;;;6.80;3.87;;;;;;;-6.03;100.00;102247.34;4996943;28;20487;-71
2024/01/21 07:33:27;;;;;;;8.37;4.80;;;;;;;-5.92;100.00;102246.91;4996633;28;20466;-71
2024/01/21 07:35:54;;;;;;;6.50;3.90;;;;;;;-5.80;100.00;102251.41;4998415;28;20475;-71
2024/01/21 07:38:20;;;;;;;4.57;3.33;;;;;;;-5.67;100.00;102251.56;4993750;28;20580;-71
2024/01/21 07:40:47;;;;;;;6.23;3.13;;;;;;;-5.51;100.00;102260.84;4996568;28;20924;-71
2024/01/21 07:43:13;;;;;;;5.73;3.63;;;;;;;-5.34;100.00;102264.84;4998865;28;20513;-71
2024/01/21 07:45:40;;;;;;;4.20;2.93;;;;;;;-5.20;100.00;102269.97;5002589;28;20478;-71
2024/01/21 07:48:08;;;;;;;5.77;3.50;;;;;;;-5.01;100.00;102274.53;5002038;28;20993;-71
2024/01/21 07:50:34;;;;;;;5.70;4.03;;;;;;;-4.85;100.00;102273.50;4998930;28;20490;-71
2024/01/21 07:53:01;;;;;;;6.93;3.97;;;;;;;-4.72;100.00;102271.84;4999652;28;20470;-70
2024/01/21 07:55:27;;;;;;;5.80;4.07;;;;;;;-4.58;100.00;102276.13;4997266;28;23621;-71
2024/01/21 07:57:53;;;;;;;8.97;3.90;;;;;;;-4.43;100.00;102282.00;5000944;28;20474;-71
2024/01/21 08:00:20;;;;;;;7.37;4.00;;;;;;;-4.30;100.00;102276.94;4997505;28;20494;-71
2024/01/21 08:02:46;;;;;;;6.67;4.07;;;;;;;-4.17;100.00;102278.84;5000480;28;20628;-71
2024/01/21 08:05:14;;;;;;;6.27;3.73;;;;;;;-4.03;100.00;102276.19;4996825;28;20655;-70
2024/01/21 08:07:40;;;;;;;7.20;3.80;;;;;;;-3.92;100.00;102285.16;4999870;28;20463;-71
2024/01/21 08:10:08;;;;;;;6.83;4.00;;;;;;;-3.81;100.00;102290.59;5002259;28;20466;-71
2024/01/21 08:12:35;;;;;;;6.57;3.77;;;;;;;-3.69;100.00;102285.72;4998239;28;20560;-71
2024/01/21 08:15:02;;;;;;;8.80;4.10;;;;;;;-3.57;100.00;102279.00;5001942;28;20480;-70
2024/01/21 08:17:29;;;;;;;6.63;3.87;;;;;;;-3.43;100.00;102270.34;4997628;28;21018;-71
2024/01/21 08:19:55;;;;;;;13.80;5.63;;;;;;;-3.32;100.00;102267.22;5002959;28;20845;-70
2024/01/21 08:22:23;;;;;;;11.93;5.80;;;;;;;-3.20;100.00;102263.06;5000156;28;20478;-69
2024/01/21 08:24:51;;;;;;;9.00;5.03;;;;;;;-3.09;100.00;102259.91;5000828;28;20493;-70
2024/01/21 08:27:17;;;;;;;8.63;4.90;;;;;;;-2.97;100.00;102266.09;4997488;28;20841;-69
2024/01/21 08:29:44;;;;;;;8.47;4.70;;;;;;;-2.85;98.05;102267.91;5002566;28;20458;-70
2024/01/21 08:32:10;;;;;;;9.47;4.47;;;;;;;-2.78;98.92;102261.00;5000561;28;20486;-70
2024/01/21 08:34:38;;;;;;;6.97;4.20;;;;;;;-2.66;98.82;102262.00;5001790;28;20470;-70
2024/01/21 08:37:05;;;;;;;8.93;4.87;;;;;;;-2.56;100.00;102262.41;5000230;28;20562;-71
2024/01/21 08:39:32;;;;;;;7.67;4.13;;;;;;;-2.45;100.00;102263.59;4996621;28;21405;-70
2024/01/21 08:41:59;;;;;;;5.60;3.83;;;;;;;-2.36;98.05;102263.19;5000796;28;20242;-70
2024/01/21 08:44:25;;;;;;;8.80;3.83;;;;;;;-2.25;99.05;102261.78;4995879;28;20193;-70
2024/01/21 08:46:51;;;;;;;6.70;4.47;;;;;;;-2.16;100.00;102266.56;5004035;28;20562;-70
2024/01/21 08:49:18;;;;;;;6.53;4.00;;;;;;;-2.06;99.00;102269.56;4995487;28;20209;-70
2024/01/21 08:51:44;;;;;;;7.43;3.63;;;;;;;-1.98;97.97;102265.97;4997784;28;20487;-70
2024/01/21 08:54:10;;;;;;;5.50;3.60;;;;;;;-1.92;95.36;102245.22;5000755;28;20215;-71
2024/01/21 08:56:38;;;;;;;6.83;4.03;;;;;;;-1.84;94.64;102237.25;4996883;28;20209;-71
2024/01/21 08:59:04;;;;;;;6.30;3.53;;;;;;;-1.76;93.51;102234.41;4999989;28;20280;-70
2024/01/21 09:01:31;;;;;;;5.50;3.60;;;;;;;-1.66;96.08;102234.00;5000658;28;20228;-70
2024/01/21 09:03:57;;;;;;;9.37;3.83;;;;;;;-1.58;96.04;102239.75;4997857;28;20221;-70
2024/01/21 09:06:24;;;;;;;7.23;4.17;;;;;;;-1.50;93.06;102230.94;4994981;28;20208;-71
2024/01/21 09:08:53;;;;;;;9.33;4.47;;;;;;;-1.41;90.27;102219.34;4998195;28;20224;-70
2024/01/21 09:11:20;;;;;;;6.67;4.23;;;;;;;-1.34;90.24;102217.53;5000110;28;20231;-71
2024/01/21 09:13:47;;;;;;;7.63;4.03;;;;;;;-1.27;90.51;102213.91;4996163;28;20209;-69
2024/01/21 09:16:15;;;;;;;7.20;4.57;;;;;;;-1.21;85.56;102215.66;4999943;28;20211;-69
2024/01/21 09:18:42;;;;;;;9.13;4.73;;;;;;;-1.14;86.92;102218.22;4995547;28;20251;-70
2024/01/21 09:21:08;;;;;;;8.73;4.63;;;;;;;-1.12;85.02;102222.97;5000186;28;20225;-71
2024/01/21 09:23:35;;;;;;;10.20;5.37;;;;;;;-1.09;87.58;102226.94;4996939;28;20948;-70
2024/01/21 09:26:01;;;;;;;9.43;4.93;;;;;;;-1.07;86.93;102220.53;5000295;28;20209;-70
2024/01/21 09:28:27;;;;;;;11.37;5.93;;;;;;;-1.05;86.39;102216.97;5000139;28;20201;-70
2024/01/21 09:30:55;;;;;;;9.63;5.00;;;;;;;-1.02;82.98;102212.16;5000021;28;20224;-70
2024/01/21 09:33:21;;;;;;;7.43;4.57;;;;;;;-0.99;88.15;102208.34;4994602;28;20676;-70
2024/01/21 09:35:49;;;;;;;7.63;4.00;;;;;;;-0.96;85.99;102208.72;5000583;28;20217;-70
2024/01/21 09:38:18;;;;;;;10.03;4.70;;;;;;;-0.92;89.04;102200.31;4998365;28;20570;-70
2024/01/21 09:40:50;;;;;;;6.97;4.70;;;;;;;-0.83;80.65;102200.06;5000068;28;20877;-71
2024/01/21 09:43:17;;;;;;;9.33;4.63;;;;;;;-0.76;81.23;102204.97;4999773;28;20232;-69
2024/01/21 09:45:43;;;;;;;10.27;4.40;;;;;;;-0.68;82.32;102220.28;4993797;28;20205;-71
2024/01/21 09:48:12;;;;;;;11.33;5.73;;;;;;;-0.57;79.53;102223.19;4998463;28;20204;-71
2024/01/21 09:50:39;;;;;;;10.63;5.50;;;;;;;-0.47;82.29;102221.69;4996274;28;20227;-70
2024/01/21 09:53:06;;;;;;;9.77;4.93;;;;;;;-0.34;86.23;102231.97;4998138;28;20220;-69
2024/01/21 09:55:32;;;;;;;9.47;5.03;;;;;;;-0.22;82.47;102234.66;4996564;28;20208;-70
2024/01/21 09:58:03;;;;;;;8.83;4.57;;;;;;;-0.10;80.68;102224.16;4998838;28;20205;-70
2024/01/21 10:00:30;;;;;;;10.97;5.60;;;;;;;0.02;77.40;102225.00;4994905;28;20250;-71
2024/01/21 10:02:56;;;;;;;8.33;4.70;;;;;;;0.13;79.85;102211.34;4998859;28;20232;-70
2024/01/21 10:05:24;;;;;;;6.53;4.07;;;;;;;0.26;79.03;102207.78;4995037;28;20205;-70
2024/01/21 10:07:51;;;;;;;5.90;3.90;;;;;;;0.37;83.48;102204.47;4997199;28;20205;-69
2024/01/21 10:10:18;;;;;;;6.50;3.97;;;;;;;0.49;80.11;102197.50;5001475;28;20240;-71
2024/01/21 10:12:46;;;;;;;6.80;4.03;;;;;;;0.60;78.90;102194.16;4998038;28;20211;-71
2024/01/21 10:15:14;;;;;;;8.50;5.10;;;;;;;0.70;76.88;102192.63;4998358;28;20263;-70
2024/01/21 10:17:40;;;;;;;7.90;4.90;;;;;;;0.78;77.32;102188.94;4995184;28;20212;-71
2024/01/21 10:20:12;;;;;;;7.97;5.03;;;;;;;0.85;77.70;102174.81;4996641;28;20294;-70
2024/01/21 10:22:41;;;;;;;9.00;5.40;;;;;;;0.92;74.60;102172.91;4998485;28;20698;-70
2024/01/21 10:25:09;;;;;;;8.80;5.13;;;;;;;0.97;75.50;102167.81;4997078;28;20216;-70
2024/01/21 10:27:36;;;;;;;10.40;5.17;;;;;;;1.04;76.12;102172.94;4996027;28;20569;-71
2024/01/21 10:30:03;;;;;;;9.87;5.30;;;;;;;1.09;79.92;102176.44;4998907;28;20208;-69
2024/01/21 10:32:29;;;;;;;8.70;4.47;;;;;;;1.13;74.95;102164.56;4997441;28;20205;-71
2024/01/21 10:34:56;;;;;;;6.97;4.63;;;;;;;1.19;73.18;102152.47;4999565;28;20197;-70
2024/01/21 10:37:25;;;;;;;7.77;4.70;;;;;;;1.23;77.24;102153.59;4999391;28;20207;-69
2024/01/21 10:39:55;;;;;;;12.73;4.97;;;;;;;1.27;75.15;102149.53;4999182;28;20215;-71
2024/01/21 10:42:22;;;;;;;8.97;4.70;;;;;;;1.31;77.51;102151.44;4997889;28;20563;-69
2024/01/21 10:44:50;;;;;;;7.67;4.23;;;;;;;1.34;72.20;102147.59;4997245;28;20198;-71
2024/01/21 10:47:17;;;;;;;6.70;4.80;;;;;;;1.37;73.36;102154.97;4999497;28;20622;-70
2024/01/21 10:49:45;;;;;;;9.40;4.03;;;;;;;1.39;70.60;102140.72;4993592;28;20209;-70
2024/01/21 10:52:14;;;;;;;7.40;4.33;;;;;;;1.42;72.71;102136.88;4994706;28;20526;-70
2024/01/21 10:54:41;;;;;;;7.40;4.13;;;;;;;1.45;73.88;102134.59;4998524;28;20200;-71
2024/01/21 10:57:09;;;;;;;6.67;4.10;;;;;;;1.46;68.77;102130.97;4998810;28;20212;-70
2024/01/21 10:59:38;;;;;;;9.23;4.03;;;;;;;1.49;75.42;102129.72;4993557;28;20626;-71
2024/01/21 11:02:05;;;;;;;6.73;4.03;;;;;;;1.50;69.02;102137.31;4995484;28;20232;-71
2024/01/21 11:04:31;;;;;;;6.53;3.90;;;;;;;1.52;68.24;102126.69;4995298;28;20252;-71
2024/01/21 11:07:02;;;;;;;5.80;3.77;;;;;;;1.55;68.42;102127.00;4999975;28;20209;-71
2024/01/21 11:09:30;;;;;;;5.30;3.33;;;;;;;1.58;67.22;102125.75;4997113;28;20750;-71
2024/01/21 11:11:56;;;;;;;6.50;4.10;;;;;;;1.60;66.16;102121.09;4999829;28;20224;-70
2024/01/21 11:14:31;;;;;;;8.40;4.50;;;;;;;1.63;66.98;102113.66;4997739;28;20204;-70
2024/01/21 11:17:00;;;;;;;6.83;3.80;;;;;;;1.67;68.11;102101.75;4997396;28;20212;-71